sensor_id;sensor_type;location;lat;lon;timestamp;P1;durP1;ratioP1;P2;durP2;ratioP2
40635;SDS011;26642;55.766;37.828;2023-12-04T00:02:10;9.32;;;6.60;;
40635;SDS011;26642;55.766;37.828;2023-12-04T00:04:36;9.02;;;6.10;;
40635;SDS011;26642;55.766;37.828;2023-12-04T00:07:02;10.77;;;6.88;;
40635;SDS011;26642;55.766;37.828;2023-12-04T00:09:28;8.80;;;5.53;;
40635;SDS011;26642;55.766;37.828;2023-12-04T00:11:54;8.40;;;5.53;;
40635;SDS011;26642;55.766;37.828;2023-12-04T00:14:20;8.85;;;5.38;;
40635;SDS011;26642;55.766;37.828;2023-12-04T00:16:46;8.20;;;5.65;;
40635;SDS011;26642;55.766;37.828;2023-12-04T00:19:12;6.70;;;5.10;;
40635;SDS011;26642;55.766;37.828;2023-12-04T00:21:38;9.18;;;5.07;;
40635;SDS011;26642;55.766;37.828;2023-12-04T00:24:04;7.50;;;5.00;;
40635;SDS011;26642;55.766;37.828;2023-12-04T00:26:30;7.85;;;5.18;;
40635;SDS011;26642;55.766;37.828;2023-12-04T00:28:56;7.40;;;5.25;;
40635;SDS011;26642;55.766;37.828;2023-12-04T00:31:22;6.95;;;4.90;;
40635;SDS011;26642;55.766;37.828;2023-12-04T00:33:48;7.82;;;4.78;;
40635;SDS011;26642;55.766;37.828;2023-12-04T00:36:14;6.82;;;4.72;;
40635;SDS011;26642;55.766;37.828;2023-12-04T00:38:40;6.43;;;4.50;;
40635;SDS011;26642;55.766;37.828;2023-12-04T00:41:06;6.65;;;4.50;;
40635;SDS011;26642;55.766;37.828;2023-12-04T00:43:32;5.80;;;4.47;;
40635;SDS011;26642;55.766;37.828;2023-12-04T00:45:58;6.50;;;4.60;;
40635;SDS011;26642;55.766;37.828;2023-12-04T00:48:24;6.15;;;4.13;;
40635;SDS011;26642;55.766;37.828;2023-12-04T00:50:51;6.22;;;4.13;;
40635;SDS011;26642;55.766;37.828;2023-12-04T00:53:17;5.32;;;4.05;;
40635;SDS011;26642;55.766;37.828;2023-12-04T00:55:43;7.20;;;4.53;;
40635;SDS011;26642;55.766;37.828;2023-12-04T00:58:09;5.93;;;3.80;;
40635;SDS011;26642;55.766;37.828;2023-12-04T01:00:35;5.90;;;4.28;;
40635;SDS011;26642;55.766;37.828;2023-12-04T01:03:01;6.05;;;4.32;;
40635;SDS011;26642;55.766;37.828;2023-12-04T01:05:27;5.20;;;4.10;;
40635;SDS011;26642;55.766;37.828;2023-12-04T01:07:53;4.82;;;3.67;;
40635;SDS011;26642;55.766;37.828;2023-12-04T01:10:19;4.90;;;3.90;;
40635;SDS011;26642;55.766;37.828;2023-12-04T01:12:45;6.15;;;3.72;;
40635;SDS011;26642;55.766;37.828;2023-12-04T01:15:11;6.03;;;4.60;;
40635;SDS011;26642;55.766;37.828;2023-12-04T01:17:37;5.32;;;4.15;;
40635;SDS011;26642;55.766;37.828;2023-12-04T01:20:03;5.18;;;4.07;;
40635;SDS011;26642;55.766;37.828;2023-12-04T01:22:30;4.63;;;3.70;;
40635;SDS011;26642;55.766;37.828;2023-12-04T01:24:56;5.80;;;4.20;;
40635;SDS011;26642;55.766;37.828;2023-12-04T01:27:22;5.38;;;3.60;;
40635;SDS011;26642;55.766;37.828;2023-12-04T01:29:48;6.80;;;4.20;;
40635;SDS011;26642;55.766;37.828;2023-12-04T01:32:14;4.40;;;3.53;;
40635;SDS011;26642;55.766;37.828;2023-12-04T01:34:42;4.47;;;3.45;;
40635;SDS011;26642;55.766;37.828;2023-12-04T01:37:08;5.15;;;3.70;;
40635;SDS011;26642;55.766;37.828;2023-12-04T01:39:34;5.43;;;3.92;;
40635;SDS011;26642;55.766;37.828;2023-12-04T01:42:00;4.68;;;4.18;;
40635;SDS011;26642;55.766;37.828;2023-12-04T01:44:26;5.63;;;3.40;;
40635;SDS011;26642;55.766;37.828;2023-12-04T01:46:52;5.13;;;3.80;;
40635;SDS011;26642;55.766;37.828;2023-12-04T01:49:19;5.22;;;4.38;;
40635;SDS011;26642;55.766;37.828;2023-12-04T01:51:45;4.97;;;3.88;;
40635;SDS011;26642;55.766;37.828;2023-12-04T01:54:11;4.85;;;3.67;;
40635;SDS011;26642;55.766;37.828;2023-12-04T01:56:39;6.60;;;4.55;;
40635;SDS011;26642;55.766;37.828;2023-12-04T01:59:05;6.50;;;4.20;;
40635;SDS011;26642;55.766;37.828;2023-12-04T02:01:31;5.63;;;3.40;;
40635;SDS011;26642;55.766;37.828;2023-12-04T02:03:57;5.68;;;4.10;;
40635;SDS011;26642;55.766;37.828;2023-12-04T02:06:26;6.60;;;3.88;;
40635;SDS011;26642;55.766;37.828;2023-12-04T02:08:53;5.05;;;3.47;;
40635;SDS011;26642;55.766;37.828;2023-12-04T02:11:19;5.20;;;4.03;;
40635;SDS011;26642;55.766;37.828;2023-12-04T02:13:45;5.22;;;3.70;;
40635;SDS011;26642;55.766;37.828;2023-12-04T02:16:11;5.10;;;3.92;;
40635;SDS011;26642;55.766;37.828;2023-12-04T02:18:42;5.43;;;3.80;;
40635;SDS011;26642;55.766;37.828;2023-12-04T02:21:09;4.90;;;3.72;;
40635;SDS011;26642;55.766;37.828;2023-12-04T02:23:35;4.68;;;4.00;;
40635;SDS011;26642;55.766;37.828;2023-12-04T02:26:03;5.80;;;4.25;;
40635;SDS011;26642;55.766;37.828;2023-12-04T02:28:36;4.80;;;3.60;;
40635;SDS011;26642;55.766;37.828;2023-12-04T02:31:04;5.47;;;3.75;;
40635;SDS011;26642;55.766;37.828;2023-12-04T02:33:32;5.95;;;4.20;;
40635;SDS011;26642;55.766;37.828;2023-12-04T02:35:59;5.82;;;4.10;;
40635;SDS011;26642;55.766;37.828;2023-12-04T02:38:27;5.15;;;3.40;;
40635;SDS011;26642;55.766;37.828;2023-12-04T02:40:54;8.35;;;4.65;;
40635;SDS011;26642;55.766;37.828;2023-12-04T02:43:20;5.85;;;4.03;;
40635;SDS011;26642;55.766;37.828;2023-12-04T02:45:46;7.55;;;4.38;;
40635;SDS011;26642;55.766;37.828;2023-12-04T02:48:12;5.78;;;3.90;;
40635;SDS011;26642;55.766;37.828;2023-12-04T02:50:39;6.10;;;4.40;;
40635;SDS011;26642;55.766;37.828;2023-12-04T02:53:05;6.88;;;4.43;;
40635;SDS011;26642;55.766;37.828;2023-12-04T02:55:31;6.13;;;4.20;;
40635;SDS011;26642;55.766;37.828;2023-12-04T02:57:57;8.40;;;4.82;;
40635;SDS011;26642;55.766;37.828;2023-12-04T03:00:23;5.63;;;4.13;;
40635;SDS011;26642;55.766;37.828;2023-12-04T03:02:49;7.03;;;5.00;;
40635;SDS011;26642;55.766;37.828;2023-12-04T03:05:15;6.80;;;4.57;;
40635;SDS011;26642;55.766;37.828;2023-12-04T03:07:41;7.18;;;4.65;;
40635;SDS011;26642;55.766;37.828;2023-12-04T03:10:07;7.18;;;4.82;;
40635;SDS011;26642;55.766;37.828;2023-12-04T03:12:33;7.88;;;4.93;;
40635;SDS011;26642;55.766;37.828;2023-12-04T03:14:59;7.13;;;4.80;;
40635;SDS011;26642;55.766;37.828;2023-12-04T03:17:25;6.85;;;5.07;;
40635;SDS011;26642;55.766;37.828;2023-12-04T03:19:52;7.53;;;4.90;;
40635;SDS011;26642;55.766;37.828;2023-12-04T03:22:18;7.05;;;4.80;;
40635;SDS011;26642;55.766;37.828;2023-12-04T03:24:44;8.60;;;4.80;;
40635;SDS011;26642;55.766;37.828;2023-12-04T03:27:10;7.65;;;4.93;;
40635;SDS011;26642;55.766;37.828;2023-12-04T03:29:36;6.90;;;5.13;;
40635;SDS011;26642;55.766;37.828;2023-12-04T03:32:02;7.70;;;5.10;;
40635;SDS011;26642;55.766;37.828;2023-12-04T03:34:29;8.07;;;5.03;;
40635;SDS011;26642;55.766;37.828;2023-12-04T03:36:55;7.88;;;4.68;;
40635;SDS011;26642;55.766;37.828;2023-12-04T03:39:21;6.63;;;4.60;;
40635;SDS011;26642;55.766;37.828;2023-12-04T03:41:47;8.32;;;5.25;;
40635;SDS011;26642;55.766;37.828;2023-12-04T03:44:13;8.30;;;5.30;;
40635;SDS011;26642;55.766;37.828;2023-12-04T03:46:39;7.43;;;5.30;;
40635;SDS011;26642;55.766;37.828;2023-12-04T03:49:05;8.43;;;5.15;;
40635;SDS011;26642;55.766;37.828;2023-12-04T03:51:31;7.55;;;5.15;;
40635;SDS011;26642;55.766;37.828;2023-12-04T03:53:58;8.10;;;4.75;;
40635;SDS011;26642;55.766;37.828;2023-12-04T03:56:23;6.55;;;4.43;;
40635;SDS011;26642;55.766;37.828;2023-12-04T03:58:49;7.00;;;4.95;;
40635;SDS011;26642;55.766;37.828;2023-12-04T04:01:15;7.45;;;5.05;;
40635;SDS011;26642;55.766;37.828;2023-12-04T04:03:42;6.22;;;4.93;;
40635;SDS011;26642;55.766;37.828;2023-12-04T04:06:08;7.10;;;4.97;;
40635;SDS011;26642;55.766;37.828;2023-12-04T04:08:34;7.75;;;4.90;;
40635;SDS011;26642;55.766;37.828;2023-12-04T04:11:00;6.00;;;4.13;;
40635;SDS011;26642;55.766;37.828;2023-12-04T04:13:27;6.38;;;4.90;;
40635;SDS011;26642;55.766;37.828;2023-12-04T04:15:53;7.05;;;4.82;;
40635;SDS011;26642;55.766;37.828;2023-12-04T04:18:19;6.90;;;5.03;;
40635;SDS011;26642;55.766;37.828;2023-12-04T04:20:45;6.82;;;4.70;;
40635;SDS011;26642;55.766;37.828;2023-12-04T04:23:11;6.60;;;5.00;;
40635;SDS011;26642;55.766;37.828;2023-12-04T04:25:37;6.22;;;4.95;;
40635;SDS011;26642;55.766;37.828;2023-12-04T04:28:03;6.82;;;4.82;;
40635;SDS011;26642;55.766;37.828;2023-12-04T04:30:29;7.13;;;4.93;;
40635;SDS011;26642;55.766;37.828;2023-12-04T04:32:55;6.90;;;5.28;;
40635;SDS011;26642;55.766;37.828;2023-12-04T04:35:21;7.55;;;5.13;;
40635;SDS011;26642;55.766;37.828;2023-12-04T04:37:47;6.65;;;4.90;;
40635;SDS011;26642;55.766;37.828;2023-12-04T04:40:13;7.03;;;5.30;;
40635;SDS011;26642;55.766;37.828;2023-12-04T04:42:39;6.53;;;4.82;;
40635;SDS011;26642;55.766;37.828;2023-12-04T04:45:05;7.28;;;4.57;;
40635;SDS011;26642;55.766;37.828;2023-12-04T04:47:32;7.72;;;5.13;;
40635;SDS011;26642;55.766;37.828;2023-12-04T04:49:58;10.60;;;4.93;;
40635;SDS011;26642;55.766;37.828;2023-12-04T04:52:24;10.77;;;5.43;;
40635;SDS011;26642;55.766;37.828;2023-12-04T04:54:50;7.13;;;4.63;;
40635;SDS011;26642;55.766;37.828;2023-12-04T04:57:16;9.77;;;5.75;;
40635;SDS011;26642;55.766;37.828;2023-12-04T04:59:42;11.25;;;5.60;;
40635;SDS011;26642;55.766;37.828;2023-12-04T05:02:08;15.70;;;5.82;;
40635;SDS011;26642;55.766;37.828;2023-12-04T05:04:34;9.27;;;5.95;;
40635;SDS011;26642;55.766;37.828;2023-12-04T05:07:00;9.10;;;6.35;;
40635;SDS011;26642;55.766;37.828;2023-12-04T05:09:26;10.20;;;5.97;;
40635;SDS011;26642;55.766;37.828;2023-12-04T05:11:52;9.40;;;5.97;;
40635;SDS011;26642;55.766;37.828;2023-12-04T05:14:18;8.70;;;6.07;;
40635;SDS011;26642;55.766;37.828;2023-12-04T05:16:44;9.82;;;6.22;;
40635;SDS011;26642;55.766;37.828;2023-12-04T05:19:10;11.23;;;6.15;;
40635;SDS011;26642;55.766;37.828;2023-12-04T05:21:36;8.15;;;6.28;;
40635;SDS011;26642;55.766;37.828;2023-12-04T05:24:02;10.93;;;7.18;;
40635;SDS011;26642;55.766;37.828;2023-12-04T05:26:28;9.93;;;5.75;;
40635;SDS011;26642;55.766;37.828;2023-12-04T05:28:54;10.18;;;6.05;;
40635;SDS011;26642;55.766;37.828;2023-12-04T05:31:20;10.02;;;5.63;;
40635;SDS011;26642;55.766;37.828;2023-12-04T05:33:46;14.23;;;6.60;;
40635;SDS011;26642;55.766;37.828;2023-12-04T05:36:12;10.40;;;6.28;;
40635;SDS011;26642;55.766;37.828;2023-12-04T05:38:38;11.85;;;6.07;;
40635;SDS011;26642;55.766;37.828;2023-12-04T05:41:04;9.05;;;5.90;;
40635;SDS011;26642;55.766;37.828;2023-12-04T05:43:31;10.30;;;6.50;;
40635;SDS011;26642;55.766;37.828;2023-12-04T05:45:57;8.80;;;5.80;;
40635;SDS011;26642;55.766;37.828;2023-12-04T05:48:22;9.65;;;5.95;;
40635;SDS011;26642;55.766;37.828;2023-12-04T05:50:49;8.38;;;5.70;;
40635;SDS011;26642;55.766;37.828;2023-12-04T05:53:15;10.23;;;5.85;;
40635;SDS011;26642;55.766;37.828;2023-12-04T05:55:42;10.25;;;6.07;;
40635;SDS011;26642;55.766;37.828;2023-12-04T05:58:08;8.07;;;5.55;;
40635;SDS011;26642;55.766;37.828;2023-12-04T06:00:34;10.13;;;6.18;;
40635;SDS011;26642;55.766;37.828;2023-12-04T06:03:00;9.40;;;5.07;;
40635;SDS011;26642;55.766;37.828;2023-12-04T06:05:26;9.70;;;5.63;;
40635;SDS011;26642;55.766;37.828;2023-12-04T06:07:52;9.63;;;5.78;;
40635;SDS011;26642;55.766;37.828;2023-12-04T06:10:19;7.97;;;6.05;;
40635;SDS011;26642;55.766;37.828;2023-12-04T06:12:49;9.27;;;5.63;;
40635;SDS011;26642;55.766;37.828;2023-12-04T06:15:15;10.57;;;6.05;;
40635;SDS011;26642;55.766;37.828;2023-12-04T06:17:41;7.63;;;5.70;;
40635;SDS011;26642;55.766;37.828;2023-12-04T06:22:43;9.07;;;5.65;;
40635;SDS011;26642;55.766;37.828;2023-12-04T06:25:09;9.13;;;5.43;;
40635;SDS011;26642;55.766;37.828;2023-12-04T06:27:39;8.30;;;5.93;;
40635;SDS011;26642;55.766;37.828;2023-12-04T06:30:07;9.57;;;6.75;;
40635;SDS011;26642;55.766;37.828;2023-12-04T06:32:33;8.10;;;5.65;;
40635;SDS011;26642;55.766;37.828;2023-12-04T06:34:59;8.25;;;5.88;;
40635;SDS011;26642;55.766;37.828;2023-12-04T06:37:26;8.93;;;5.93;;
40635;SDS011;26642;55.766;37.828;2023-12-04T06:39:52;8.05;;;5.65;;
40635;SDS011;26642;55.766;37.828;2023-12-04T06:42:19;11.93;;;6.28;;
40635;SDS011;26642;55.766;37.828;2023-12-04T06:44:45;10.73;;;5.93;;
40635;SDS011;26642;55.766;37.828;2023-12-04T06:47:12;9.35;;;5.80;;
40635;SDS011;26642;55.766;37.828;2023-12-04T06:49:42;8.98;;;5.95;;
40635;SDS011;26642;55.766;37.828;2023-12-04T06:52:08;8.65;;;5.35;;
40635;SDS011;26642;55.766;37.828;2023-12-04T06:54:34;8.65;;;5.63;;
40635;SDS011;26642;55.766;37.828;2023-12-04T06:57:00;9.90;;;6.13;;
40635;SDS011;26642;55.766;37.828;2023-12-04T06:59:26;8.45;;;5.82;;
40635;SDS011;26642;55.766;37.828;2023-12-04T07:01:53;8.45;;;5.93;;
40635;SDS011;26642;55.766;37.828;2023-12-04T07:04:19;7.90;;;5.50;;
40635;SDS011;26642;55.766;37.828;2023-12-04T07:06:47;8.48;;;5.85;;
40635;SDS011;26642;55.766;37.828;2023-12-04T07:09:14;7.53;;;5.80;;
40635;SDS011;26642;55.766;37.828;2023-12-04T07:11:40;6.97;;;5.00;;
40635;SDS011;26642;55.766;37.828;2023-12-04T07:14:06;8.30;;;5.30;;
40635;SDS011;26642;55.766;37.828;2023-12-04T07:16:38;7.97;;;5.85;;
40635;SDS011;26642;55.766;37.828;2023-12-04T07:19:06;7.55;;;5.43;;
40635;SDS011;26642;55.766;37.828;2023-12-04T07:21:32;16.88;;;5.70;;
40635;SDS011;26642;55.766;37.828;2023-12-04T07:23:58;8.23;;;5.63;;
40635;SDS011;26642;55.766;37.828;2023-12-04T07:26:24;8.48;;;5.32;;
40635;SDS011;26642;55.766;37.828;2023-12-04T07:28:50;8.93;;;5.45;;
40635;SDS011;26642;55.766;37.828;2023-12-04T07:31:16;8.20;;;5.68;;
40635;SDS011;26642;55.766;37.828;2023-12-04T07:33:42;8.27;;;5.47;;
40635;SDS011;26642;55.766;37.828;2023-12-04T07:36:08;8.00;;;5.60;;
40635;SDS011;26642;55.766;37.828;2023-12-04T07:38:34;7.57;;;5.30;;
40635;SDS011;26642;55.766;37.828;2023-12-04T07:41:00;7.40;;;5.32;;
40635;SDS011;26642;55.766;37.828;2023-12-04T07:43:26;8.45;;;5.60;;
40635;SDS011;26642;55.766;37.828;2023-12-04T07:45:54;8.30;;;6.13;;
40635;SDS011;26642;55.766;37.828;2023-12-04T07:48:21;8.65;;;5.60;;
40635;SDS011;26642;55.766;37.828;2023-12-04T07:50:48;8.15;;;5.70;;
40635;SDS011;26642;55.766;37.828;2023-12-04T07:53:14;10.60;;;5.93;;
40635;SDS011;26642;55.766;37.828;2023-12-04T07:55:40;9.18;;;5.68;;
40635;SDS011;26642;55.766;37.828;2023-12-04T07:58:06;8.35;;;5.70;;
40635;SDS011;26642;55.766;37.828;2023-12-04T08:00:32;8.63;;;5.90;;
40635;SDS011;26642;55.766;37.828;2023-12-04T08:02:58;8.77;;;5.65;;
40635;SDS011;26642;55.766;37.828;2023-12-04T08:05:24;7.35;;;5.53;;
40635;SDS011;26642;55.766;37.828;2023-12-04T08:07:50;8.18;;;5.72;;
40635;SDS011;26642;55.766;37.828;2023-12-04T08:10:16;8.20;;;5.63;;
40635;SDS011;26642;55.766;37.828;2023-12-04T08:12:44;8.05;;;5.50;;
40635;SDS011;26642;55.766;37.828;2023-12-04T08:15:12;9.38;;;6.22;;
40635;SDS011;26642;55.766;37.828;2023-12-04T08:17:38;8.75;;;6.10;;
40635;SDS011;26642;55.766;37.828;2023-12-04T08:20:04;7.45;;;5.45;;
40635;SDS011;26642;55.766;37.828;2023-12-04T08:22:31;8.43;;;5.43;;
40635;SDS011;26642;55.766;37.828;2023-12-04T08:24:57;7.85;;;5.35;;
40635;SDS011;26642;55.766;37.828;2023-12-04T08:27:24;8.05;;;5.40;;
40635;SDS011;26642;55.766;37.828;2023-12-04T08:29:50;8.70;;;5.60;;
40635;SDS011;26642;55.766;37.828;2023-12-04T08:32:16;8.50;;;5.68;;
40635;SDS011;26642;55.766;37.828;2023-12-04T08:34:42;8.02;;;5.65;;
40635;SDS011;26642;55.766;37.828;2023-12-04T08:37:08;8.95;;;5.90;;
40635;SDS011;26642;55.766;37.828;2023-12-04T08:39:34;8.57;;;5.90;;
40635;SDS011;26642;55.766;37.828;2023-12-04T08:42:00;8.10;;;5.97;;
40635;SDS011;26642;55.766;37.828;2023-12-04T08:44:26;8.35;;;5.43;;
40635;SDS011;26642;55.766;37.828;2023-12-04T08:46:52;8.57;;;5.45;;
40635;SDS011;26642;55.766;37.828;2023-12-04T08:49:18;9.38;;;5.38;;
40635;SDS011;26642;55.766;37.828;2023-12-04T08:51:44;8.60;;;5.93;;
40635;SDS011;26642;55.766;37.828;2023-12-04T08:54:10;9.02;;;6.30;;
40635;SDS011;26642;55.766;37.828;2023-12-04T08:56:36;8.77;;;5.32;;
40635;SDS011;26642;55.766;37.828;2023-12-04T08:59:02;10.13;;;6.05;;
40635;SDS011;26642;55.766;37.828;2023-12-04T09:01:28;8.35;;;5.57;;
40635;SDS011;26642;55.766;37.828;2023-12-04T09:03:54;8.57;;;5.70;;
40635;SDS011;26642;55.766;37.828;2023-12-04T09:06:21;8.18;;;5.93;;
40635;SDS011;26642;55.766;37.828;2023-12-04T09:08:47;8.77;;;5.63;;
40635;SDS011;26642;55.766;37.828;2023-12-04T09:11:13;8.50;;;5.45;;
40635;SDS011;26642;55.766;37.828;2023-12-04T09:13:39;8.63;;;5.82;;
40635;SDS011;26642;55.766;37.828;2023-12-04T09:16:05;9.35;;;5.80;;
40635;SDS011;26642;55.766;37.828;2023-12-04T09:18:31;8.38;;;5.75;;
40635;SDS011;26642;55.766;37.828;2023-12-04T09:20:58;8.77;;;5.90;;
40635;SDS011;26642;55.766;37.828;2023-12-04T09:23:24;7.78;;;5.22;;
40635;SDS011;26642;55.766;37.828;2023-12-04T09:25:50;8.75;;;6.13;;
40635;SDS011;26642;55.766;37.828;2023-12-04T09:28:16;9.25;;;6.03;;
40635;SDS011;26642;55.766;37.828;2023-12-04T09:30:42;9.55;;;5.93;;
40635;SDS011;26642;55.766;37.828;2023-12-04T09:33:08;8.50;;;5.20;;
40635;SDS011;26642;55.766;37.828;2023-12-04T09:35:34;8.73;;;5.60;;
40635;SDS011;26642;55.766;37.828;2023-12-04T09:38:00;8.68;;;5.70;;
40635;SDS011;26642;55.766;37.828;2023-12-04T09:40:26;10.50;;;5.88;;
40635;SDS011;26642;55.766;37.828;2023-12-04T09:42:52;8.65;;;5.88;;
40635;SDS011;26642;55.766;37.828;2023-12-04T09:45:19;7.47;;;5.32;;
40635;SDS011;26642;55.766;37.828;2023-12-04T09:47:47;7.13;;;5.63;;
40635;SDS011;26642;55.766;37.828;2023-12-04T09:50:14;10.25;;;6.10;;
40635;SDS011;26642;55.766;37.828;2023-12-04T09:52:42;8.55;;;5.70;;
40635;SDS011;26642;55.766;37.828;2023-12-04T09:55:08;10.43;;;6.45;;
40635;SDS011;26642;55.766;37.828;2023-12-04T09:57:35;8.55;;;5.88;;
40635;SDS011;26642;55.766;37.828;2023-12-04T10:00:02;7.15;;;5.35;;
40635;SDS011;26642;55.766;37.828;2023-12-04T10:02:36;7.75;;;5.50;;
40635;SDS011;26642;55.766;37.828;2023-12-04T10:05:04;8.25;;;5.70;;
40635;SDS011;26642;55.766;37.828;2023-12-04T10:07:31;6.38;;;5.00;;
40635;SDS011;26642;55.766;37.828;2023-12-04T10:09:57;7.60;;;5.78;;
40635;SDS011;26642;55.766;37.828;2023-12-04T10:12:23;7.80;;;5.55;;
40635;SDS011;26642;55.766;37.828;2023-12-04T10:15:02;8.93;;;5.72;;
40635;SDS011;26642;55.766;37.828;2023-12-04T10:17:39;8.65;;;5.72;;
40635;SDS011;26642;55.766;37.828;2023-12-04T10:20:12;8.45;;;5.80;;
40635;SDS011;26642;55.766;37.828;2023-12-04T10:22:53;9.88;;;5.53;;
40635;SDS011;26642;55.766;37.828;2023-12-04T10:25:24;8.18;;;5.47;;
40635;SDS011;26642;55.766;37.828;2023-12-04T10:27:55;7.30;;;5.63;;
40635;SDS011;26642;55.766;37.828;2023-12-04T10:30:34;9.88;;;6.50;;
40635;SDS011;26642;55.766;37.828;2023-12-04T10:33:01;9.07;;;6.00;;
40635;SDS011;26642;55.766;37.828;2023-12-04T10:35:28;8.15;;;5.78;;
40635;SDS011;26642;55.766;37.828;2023-12-04T10:37:56;7.57;;;5.47;;
40635;SDS011;26642;55.766;37.828;2023-12-04T10:40:26;8.35;;;5.20;;
40635;SDS011;26642;55.766;37.828;2023-12-04T10:45:34;9.05;;;5.20;;
40635;SDS011;26642;55.766;37.828;2023-12-04T10:48:01;8.15;;;5.30;;
40635;SDS011;26642;55.766;37.828;2023-12-04T10:50:33;9.98;;;5.43;;
40635;SDS011;26642;55.766;37.828;2023-12-04T10:53:09;7.07;;;5.40;;
40635;SDS011;26642;55.766;37.828;2023-12-04T10:55:37;8.25;;;5.80;;
40635;SDS011;26642;55.766;37.828;2023-12-04T10:58:05;9.98;;;6.00;;
40635;SDS011;26642;55.766;37.828;2023-12-04T11:00:33;9.48;;;5.97;;
40635;SDS011;26642;55.766;37.828;2023-12-04T11:03:04;8.93;;;5.55;;
40635;SDS011;26642;55.766;37.828;2023-12-04T11:05:38;7.65;;;5.47;;
40635;SDS011;26642;55.766;37.828;2023-12-04T11:08:05;9.35;;;6.07;;
40635;SDS011;26642;55.766;37.828;2023-12-04T11:10:35;8.80;;;6.07;;
40635;SDS011;26642;55.766;37.828;2023-12-04T11:13:12;9.90;;;6.18;;
40635;SDS011;26642;55.766;37.828;2023-12-04T11:15:44;9.10;;;6.45;;
40635;SDS011;26642;55.766;37.828;2023-12-04T11:18:15;9.23;;;6.13;;
40635;SDS011;26642;55.766;37.828;2023-12-04T11:20:56;8.82;;;6.40;;
40635;SDS011;26642;55.766;37.828;2023-12-04T11:23:24;9.65;;;6.15;;
40635;SDS011;26642;55.766;37.828;2023-12-04T11:25:51;9.50;;;6.55;;
40635;SDS011;26642;55.766;37.828;2023-12-04T11:28:18;7.50;;;5.75;;
40635;SDS011;26642;55.766;37.828;2023-12-04T11:30:45;8.75;;;6.18;;
40635;SDS011;26642;55.766;37.828;2023-12-04T11:33:12;8.13;;;6.00;;
40635;SDS011;26642;55.766;37.828;2023-12-04T11:35:38;8.98;;;6.00;;
40635;SDS011;26642;55.766;37.828;2023-12-04T11:38:05;8.95;;;6.10;;
40635;SDS011;26642;55.766;37.828;2023-12-04T11:40:35;9.73;;;6.30;;
40635;SDS011;26642;55.766;37.828;2023-12-04T11:43:25;9.13;;;6.43;;
40635;SDS011;26642;55.766;37.828;2023-12-04T11:45:53;9.90;;;6.10;;
40635;SDS011;26642;55.766;37.828;2023-12-04T11:48:22;10.25;;;6.75;;
40635;SDS011;26642;55.766;37.828;2023-12-04T11:50:51;8.93;;;6.07;;
40635;SDS011;26642;55.766;37.828;2023-12-04T11:53:21;9.52;;;6.30;;
40635;SDS011;26642;55.766;37.828;2023-12-04T11:55:47;9.90;;;6.13;;
40635;SDS011;26642;55.766;37.828;2023-12-04T11:58:13;9.10;;;6.28;;
40635;SDS011;26642;55.766;37.828;2023-12-04T12:00:42;8.90;;;5.95;;
40635;SDS011;26642;55.766;37.828;2023-12-04T12:03:08;9.13;;;6.10;;
40635;SDS011;26642;55.766;37.828;2023-12-04T12:05:35;9.60;;;5.95;;
40635;SDS011;26642;55.766;37.828;2023-12-04T12:08:04;9.73;;;6.65;;
40635;SDS011;26642;55.766;37.828;2023-12-04T12:10:31;9.63;;;6.55;;
40635;SDS011;26642;55.766;37.828;2023-12-04T12:12:59;10.07;;;6.78;;
40635;SDS011;26642;55.766;37.828;2023-12-04T12:15:26;8.70;;;5.88;;
40635;SDS011;26642;55.766;37.828;2023-12-04T12:17:53;8.95;;;6.10;;
40635;SDS011;26642;55.766;37.828;2023-12-04T12:20:19;9.45;;;6.40;;
40635;SDS011;26642;55.766;37.828;2023-12-04T12:22:48;8.73;;;6.35;;
40635;SDS011;26642;55.766;37.828;2023-12-04T12:25:15;8.70;;;5.93;;
40635;SDS011;26642;55.766;37.828;2023-12-04T12:27:42;10.82;;;6.80;;
40635;SDS011;26642;55.766;37.828;2023-12-04T12:30:08;10.10;;;6.88;;
40635;SDS011;26642;55.766;37.828;2023-12-04T12:32:35;12.85;;;7.60;;
40635;SDS011;26642;55.766;37.828;2023-12-04T12:35:01;11.50;;;7.25;;
40635;SDS011;26642;55.766;37.828;2023-12-04T12:37:29;10.23;;;7.05;;
40635;SDS011;26642;55.766;37.828;2023-12-04T12:39:55;10.52;;;6.75;;
40635;SDS011;26642;55.766;37.828;2023-12-04T12:44:52;10.63;;;6.90;;
40635;SDS011;26642;55.766;37.828;2023-12-04T12:47:19;10.75;;;6.78;;
40635;SDS011;26642;55.766;37.828;2023-12-04T12:49:45;10.02;;;6.95;;
40635;SDS011;26642;55.766;37.828;2023-12-04T12:52:12;9.40;;;6.53;;
40635;SDS011;26642;55.766;37.828;2023-12-04T12:54:43;9.73;;;6.60;;
40635;SDS011;26642;55.766;37.828;2023-12-04T12:57:10;8.98;;;6.43;;
40635;SDS011;26642;55.766;37.828;2023-12-04T12:59:39;8.30;;;5.88;;
40635;SDS011;26642;55.766;37.828;2023-12-04T13:02:06;8.05;;;6.13;;
40635;SDS011;26642;55.766;37.828;2023-12-04T13:04:42;7.30;;;5.63;;
40635;SDS011;26642;55.766;37.828;2023-12-04T13:07:09;7.80;;;5.55;;
40635;SDS011;26642;55.766;37.828;2023-12-04T13:09:36;6.85;;;4.90;;
40635;SDS011;26642;55.766;37.828;2023-12-04T13:12:04;8.20;;;5.70;;
40635;SDS011;26642;55.766;37.828;2023-12-04T13:14:31;7.93;;;5.75;;
40635;SDS011;26642;55.766;37.828;2023-12-04T13:17:02;8.45;;;5.63;;
40635;SDS011;26642;55.766;37.828;2023-12-04T13:19:28;8.68;;;5.97;;
40635;SDS011;26642;55.766;37.828;2023-12-04T13:21:57;8.52;;;5.82;;
40635;SDS011;26642;55.766;37.828;2023-12-04T13:24:23;8.48;;;5.63;;
40635;SDS011;26642;55.766;37.828;2023-12-04T13:26:49;10.32;;;6.63;;
40635;SDS011;26642;55.766;37.828;2023-12-04T13:29:15;9.57;;;6.28;;
40635;SDS011;26642;55.766;37.828;2023-12-04T13:31:42;7.95;;;5.47;;
40635;SDS011;26642;55.766;37.828;2023-12-04T13:34:08;9.52;;;6.43;;
40635;SDS011;26642;55.766;37.828;2023-12-04T13:36:36;8.77;;;5.97;;
40635;SDS011;26642;55.766;37.828;2023-12-04T13:39:02;9.73;;;6.50;;
40635;SDS011;26642;55.766;37.828;2023-12-04T13:41:30;9.85;;;6.47;;
40635;SDS011;26642;55.766;37.828;2023-12-04T13:44:15;10.18;;;6.43;;
40635;SDS011;26642;55.766;37.828;2023-12-04T13:46:41;8.55;;;6.05;;
40635;SDS011;26642;55.766;37.828;2023-12-04T13:49:07;10.23;;;6.60;;
40635;SDS011;26642;55.766;37.828;2023-12-04T13:51:33;10.80;;;7.30;;
40635;SDS011;26642;55.766;37.828;2023-12-04T13:54:05;10.50;;;7.43;;
40635;SDS011;26642;55.766;37.828;2023-12-04T13:56:45;10.88;;;7.78;;
40635;SDS011;26642;55.766;37.828;2023-12-04T13:59:19;12.00;;;8.20;;
40635;SDS011;26642;55.766;37.828;2023-12-04T14:01:46;14.57;;;9.05;;
40635;SDS011;26642;55.766;37.828;2023-12-04T14:04:17;12.98;;;9.10;;
40635;SDS011;26642;55.766;37.828;2023-12-04T14:06:44;14.07;;;9.75;;
40635;SDS011;26642;55.766;37.828;2023-12-04T14:09:10;17.83;;;10.32;;
40635;SDS011;26642;55.766;37.828;2023-12-04T14:11:40;15.70;;;10.63;;
40635;SDS011;26642;55.766;37.828;2023-12-04T14:14:10;17.05;;;10.70;;
40635;SDS011;26642;55.766;37.828;2023-12-04T14:16:37;15.95;;;10.65;;
40635;SDS011;26642;55.766;37.828;2023-12-04T14:19:04;16.08;;;11.07;;
40635;SDS011;26642;55.766;37.828;2023-12-04T14:21:30;16.33;;;10.13;;
40635;SDS011;26642;55.766;37.828;2023-12-04T14:23:56;12.45;;;9.95;;
40635;SDS011;26642;55.766;37.828;2023-12-04T14:26:22;17.42;;;11.05;;
40635;SDS011;26642;55.766;37.828;2023-12-04T14:28:48;15.95;;;10.52;;
40635;SDS011;26642;55.766;37.828;2023-12-04T14:31:14;15.18;;;10.23;;
40635;SDS011;26642;55.766;37.828;2023-12-04T14:33:40;15.27;;;10.38;;
40635;SDS011;26642;55.766;37.828;2023-12-04T14:36:06;15.95;;;10.85;;
40635;SDS011;26642;55.766;37.828;2023-12-04T14:38:33;17.85;;;10.95;;